createdAt,value
2019-02-12T00:03:27.248Z,3.90
2019-02-12T00:08:30.746Z,3.96
2019-02-12T00:13:33.460Z,3.98
2019-02-12T00:18:36.964Z,4.01
2019-02-12T00:23:39.561Z,3.97
2019-02-12T00:28:42.867Z,3.96
2019-02-12T00:33:46.042Z,3.92
2019-02-12T00:38:49.206Z,4.08
2019-02-12T00:43:52.471Z,3.97
2019-02-12T00:48:55.360Z,3.96
2019-02-12T00:53:58.738Z,3.95
2019-02-12T00:59:01.939Z,3.89
2019-02-12T01:04:05.493Z,3.88
2019-02-12T01:09:09.076Z,3.86
2019-02-12T01:14:11.597Z,4.00
2019-02-12T01:19:15.161Z,4.03
2019-02-12T01:24:18.680Z,4.14
2019-02-12T01:29:22.264Z,4.15
2019-02-12T01:34:25.505Z,4.10
2019-02-12T01:39:29.034Z,4.03
2019-02-12T01:44:32.259Z,4.25
2019-02-12T01:49:35.577Z,4.25
2019-02-12T01:54:38.783Z,4.18
2019-02-12T01:59:41.685Z,4.33
2019-02-12T02:04:45.011Z,4.29
2019-02-12T02:09:48.204Z,4.31
2019-02-12T02:14:51.116Z,4.25
2019-02-12T02:19:55.445Z,4.40
2019-02-12T02:24:58.657Z,4.18
2019-02-12T02:30:01.256Z,4.09
2019-02-12T02:35:04.358Z,4.19
2019-02-12T02:40:08.165Z,4.29
2019-02-12T02:45:12.173Z,4.15
2019-02-12T02:50:15.373Z,4.10
2019-02-12T02:55:18.258Z,4.25
2019-02-12T03:00:21.711Z,4.09
2019-02-12T03:05:24.948Z,4.31
2019-02-12T03:10:27.940Z,4.20
2019-02-12T03:15:31.484Z,4.18
2019-02-12T03:20:34.901Z,4.24
2019-02-12T03:25:39.229Z,4.25
2019-02-12T03:30:43.164Z,4.23
2019-02-12T03:35:45.623Z,4.12
2019-02-12T03:40:48.785Z,4.02
2019-02-12T03:45:53.812Z,3.96
2019-02-12T03:50:57.010Z,4.05
2019-02-12T03:56:00.200Z,4.09
2019-02-12T04:01:03.446Z,4.07
2019-02-12T04:06:06.603Z,4.15
2019-02-12T04:11:09.500Z,4.16
2019-02-12T04:16:12.159Z,4.16
2019-02-12T04:21:15.358Z,4.22
2019-02-12T04:26:19.803Z,4.16
2019-02-12T04:31:23.307Z,4.04
2019-02-12T04:36:25.850Z,4.02
2019-02-12T04:41:29.055Z,3.86
2019-02-12T04:46:32.574Z,3.71
2019-02-12T04:51:35.765Z,3.86
2019-02-12T04:56:39.359Z,3.81
2019-02-12T05:01:42.502Z,3.77
2019-02-12T05:06:45.726Z,3.71
2019-02-12T05:11:59.885Z,3.80
2019-02-12T05:17:02.761Z,3.74
2019-02-12T05:22:05.982Z,3.89
2019-02-12T05:27:09.171Z,3.80
2019-02-12T05:32:12.284Z,3.90
2019-02-12T05:37:14.939Z,3.91
2019-02-12T05:42:17.489Z,3.92
2019-02-12T05:47:21.501Z,3.76
2019-02-12T05:52:24.401Z,3.78
2019-02-12T05:57:27.603Z,3.72
2019-02-12T06:02:31.143Z,3.69
2019-02-12T06:07:34.397Z,3.81
2019-02-12T06:12:37.995Z,3.76
2019-02-12T06:17:41.464Z,3.80
2019-02-12T06:22:44.621Z,3.76
2019-02-12T06:27:47.847Z,3.83
2019-02-12T06:32:51.101Z,3.84
2019-02-12T06:37:54.010Z,3.72
2019-02-12T06:42:57.482Z,3.78
2019-02-12T06:48:00.430Z,3.93
2019-02-12T06:53:12.037Z,3.85
2019-02-12T06:58:08.423Z,3.89
2019-02-12T07:03:19.722Z,3.85
2019-02-12T07:08:40.839Z,3.93
2019-02-12T07:13:54.799Z,3.74
2019-02-12T07:19:21.759Z,3.77
2019-02-12T07:25:05.548Z,3.87
2019-02-12T07:31:01.043Z,3.89
2019-02-12T07:36:33.324Z,4.05
2019-02-12T07:42:19.483Z,4.05
2019-02-12T07:48:00.841Z,4.04
2019-02-12T07:53:31.622Z,3.96
2019-02-12T07:59:08.838Z,3.99
2019-02-12T08:04:59.495Z,4.03
2019-02-12T08:10:49.128Z,4.03
2019-02-12T08:16:14.446Z,4.31
2019-02-12T08:21:54.178Z,4.17
2019-02-12T08:27:37.197Z,4.23
2019-02-12T08:33:12.845Z,4.33
2019-02-12T08:39:04.076Z,4.30
2019-02-12T08:44:31.249Z,4.45
2019-02-12T08:50:01.845Z,4.60
2019-02-12T08:55:33.282Z,4.54
2019-02-12T09:01:02.110Z,4.42
2019-02-12T09:06:37.094Z,4.58
2019-02-12T09:12:06.057Z,4.76
2019-02-12T09:17:59.094Z,4.57
2019-02-12T09:23:30.727Z,4.65
2019-02-12T09:29:00.258Z,4.55
2019-02-12T09:34:42.147Z,4.57
2019-02-12T09:40:19.093Z,4.93
2019-02-12T09:46:23.799Z,4.99
2019-02-12T09:52:23.334Z,5.02
2019-02-12T09:58:03.975Z,5.34
2019-02-12T10:03:56.802Z,5.10
2019-02-12T10:09:28.494Z,5.14
2019-02-12T10:14:59.073Z,5.33
2019-02-12T10:20:15.696Z,5.46
2019-02-12T10:25:57.213Z,5.58
2019-02-12T10:31:40.610Z,5.61
2019-02-12T10:36:43.219Z,6.13
2019-02-12T10:41:46.525Z,6.46
2019-02-12T10:46:49.873Z,6.45
2019-02-12T10:51:52.699Z,6.50
2019-02-12T10:56:55.881Z,6.72
2019-02-12T11:01:59.056Z,6.82
2019-02-12T11:07:02.852Z,7.24
2019-02-12T11:12:06.370Z,7.09
2019-02-12T11:17:09.400Z,7.21
2019-02-12T11:22:12.915Z,7.57
2019-02-12T11:27:16.197Z,7.42
2019-02-12T11:32:19.374Z,7.20
2019-02-12T11:37:22.540Z,7.01
2019-02-12T11:42:26.101Z,7.31
2019-02-12T11:47:29.592Z,7.07
2019-02-12T11:52:32.102Z,7.17
2019-02-12T11:57:35.589Z,7.22
2019-02-12T12:02:42.019Z,7.37
2019-02-12T12:07:43.955Z,7.33
2019-02-12T12:12:47.471Z,7.48
2019-02-12T12:17:50.686Z,7.43
2019-02-12T12:22:53.576Z,7.40
2019-02-12T12:27:56.656Z,7.35
2019-02-12T12:32:59.856Z,7.46
2019-02-12T12:38:02.838Z,7.61
2019-02-12T12:43:06.038Z,8.35
2019-02-12T12:48:09.280Z,8.86
2019-02-12T12:53:12.565Z,9.55
2019-02-12T12:58:15.771Z,9.38
2019-02-12T13:03:19.252Z,9.96
2019-02-12T13:08:22.155Z,10.63
2019-02-12T13:13:24.768Z,8.88
2019-02-12T13:18:28.030Z,8.80
2019-02-12T13:23:31.395Z,8.54
2019-02-12T13:28:34.902Z,9.88
2019-02-12T13:33:40.585Z,10.24
2019-02-12T13:38:43.589Z,10.74
2019-02-12T13:43:46.189Z,10.85
2019-02-12T13:48:49.572Z,9.75
2019-02-12T13:53:54.279Z,9.18
2019-02-12T13:58:57.248Z,8.71
2019-02-12T14:04:00.702Z,8.32
2019-02-12T14:09:04.607Z,8.22
2019-02-12T14:14:07.489Z,7.93
2019-02-12T14:19:10.672Z,7.98
2019-02-12T14:24:14.285Z,7.69
2019-02-12T14:29:17.818Z,7.66
2019-02-12T14:34:21.512Z,7.57
2019-02-12T14:39:23.937Z,7.73
2019-02-12T14:44:26.920Z,7.83
2019-02-12T14:49:29.795Z,7.73
2019-02-12T14:54:33.104Z,7.77
2019-02-12T14:59:36.583Z,7.68
2019-02-12T15:04:40.246Z,7.68
2019-02-12T15:09:43.618Z,7.62
2019-02-12T15:14:47.176Z,7.42
2019-02-12T15:19:50.141Z,7.46
2019-02-12T15:24:53.367Z,7.45
2019-02-12T15:29:55.990Z,7.22
2019-02-12T15:34:59.564Z,7.20
2019-02-12T15:40:03.122Z,7.15
2019-02-12T15:45:07.166Z,7.01
2019-02-12T15:50:10.732Z,7.04
2019-02-12T15:55:13.292Z,6.85
2019-02-12T16:00:18.536Z,6.84
2019-02-12T16:05:22.726Z,6.86
2019-02-12T16:10:26.021Z,6.66
2019-02-12T16:15:29.638Z,6.55
2019-02-12T16:20:33.129Z,6.49
2019-02-12T16:25:36.473Z,6.63
2019-02-12T16:30:39.990Z,6.58
2019-02-12T16:35:43.200Z,6.55
2019-02-12T16:40:47.725Z,6.33
2019-02-12T16:45:56.148Z,6.26
2019-02-12T16:50:59.705Z,6.29
2019-02-12T16:56:08.087Z,6.24
2019-02-12T17:01:07.873Z,6.23
2019-02-12T17:06:11.723Z,6.18
2019-02-12T17:11:15.315Z,6.16
2019-02-12T17:16:18.192Z,6.32
2019-02-12T17:21:21.825Z,6.41
2019-02-12T17:26:24.830Z,6.14
2019-02-12T17:31:27.799Z,6.12
2019-02-12T17:36:31.384Z,6.18
2019-02-12T17:41:35.013Z,5.99
2019-02-12T17:46:38.581Z,6.26
2019-02-12T17:51:42.599Z,6.29
2019-02-12T17:56:45.885Z,6.27
2019-02-12T18:01:50.069Z,5.92
2019-02-12T18:06:53.371Z,6.27
2019-02-12T18:11:56.978Z,6.31
2019-02-12T18:17:01.151Z,6.14
2019-02-12T18:22:04.163Z,6.16
2019-02-12T18:27:07.794Z,6.27
2019-02-12T18:32:11.422Z,6.33
2019-02-12T18:37:15.128Z,6.23
2019-02-12T18:42:18.800Z,6.31
2019-02-12T18:47:22.431Z,6.26
2019-02-12T18:52:25.830Z,6.25
2019-02-12T18:57:29.582Z,6.23
2019-02-12T19:02:33.416Z,6.19
2019-02-12T19:07:36.974Z,6.20
2019-02-12T19:12:40.567Z,6.17
2019-02-12T19:17:47.579Z,6.13
2019-02-12T19:22:53.860Z,5.96
2019-02-12T19:27:57.786Z,5.98
2019-02-12T19:33:03.073Z,5.92
2019-02-12T19:38:07.119Z,5.87
2019-02-12T19:43:11.433Z,5.80
2019-02-12T19:48:17.789Z,5.76
2019-02-12T19:53:21.396Z,5.91
2019-02-12T19:58:26.476Z,5.85
2019-02-12T20:03:32.486Z,6.02
2019-02-12T20:08:38.254Z,5.73
2019-02-12T20:13:45.410Z,5.76
2019-02-12T20:18:52.191Z,5.83
2019-02-12T20:23:59.337Z,5.92
2019-02-12T20:29:07.371Z,5.88
2019-02-12T20:34:11.382Z,5.91
2019-02-12T20:39:17.380Z,5.98
2019-02-12T20:44:24.887Z,5.99
2019-02-12T20:49:31.066Z,6.00
2019-02-12T20:54:36.828Z,6.07
2019-02-12T20:59:43.542Z,6.10
2019-02-12T21:04:51.030Z,6.01
2019-02-12T21:09:56.387Z,6.29
2019-02-12T21:15:02.106Z,6.20
2019-02-12T21:20:06.770Z,6.22
2019-02-12T21:25:12.445Z,6.12
2019-02-12T21:30:18.578Z,6.19
2019-02-12T21:35:24.239Z,6.16
2019-02-12T21:40:28.592Z,6.13
2019-02-12T21:45:32.069Z,6.16
2019-02-12T21:50:35.938Z,6.19
2019-02-12T21:55:38.938Z,6.38
2019-02-12T22:00:42.491Z,6.37
2019-02-12T22:05:45.518Z,6.45
2019-02-12T22:10:48.807Z,6.47
2019-02-12T22:15:51.754Z,6.42
2019-02-12T22:20:54.967Z,6.49
2019-02-12T22:25:58.347Z,6.48
2019-02-12T22:31:02.030Z,6.46
2019-02-12T22:36:05.323Z,6.50
2019-02-12T22:41:08.739Z,6.43
2019-02-12T22:46:12.394Z,6.42
2019-02-12T22:51:15.246Z,6.39
2019-02-12T22:56:18.175Z,6.46
2019-02-12T23:01:31.402Z,6.31
2019-02-12T23:06:34.314Z,6.34
2019-02-12T23:11:37.502Z,6.49
2019-02-12T23:16:40.916Z,6.30
2019-02-12T23:21:44.253Z,6.36
2019-02-12T23:26:47.604Z,6.43
2019-02-12T23:31:50.779Z,6.42
2019-02-12T23:36:54.182Z,6.39
2019-02-12T23:41:57.742Z,6.26
2019-02-12T23:47:00.604Z,6.34
2019-02-12T23:52:04.136Z,6.35
2019-02-12T23:57:07.428Z,6.20
